sensor_id;sensor_type;location;lat;lon;timestamp;P1;durP1;ratioP1;P2;durP2;ratioP2
51971;SDS011;37991;49.662;10.060;2022-07-29T00:01:41;5.10;;;2.42;;
51971;SDS011;37991;49.662;10.060;2022-07-29T00:04:07;5.43;;;2.25;;
51971;SDS011;37991;49.662;10.060;2022-07-29T00:06:33;2.42;;;2.22;;
51971;SDS011;37991;49.662;10.060;2022-07-29T00:08:58;6.25;;;2.47;;
51971;SDS011;37991;49.662;10.060;2022-07-29T00:11:23;3.17;;;2.50;;
51971;SDS011;37991;49.662;10.060;2022-07-29T00:13:49;6.05;;;2.50;;
51971;SDS011;37991;49.662;10.060;2022-07-29T00:16:14;3.47;;;2.53;;
51971;SDS011;37991;49.662;10.060;2022-07-29T00:18:39;4.80;;;2.40;;
51971;SDS011;37991;49.662;10.060;2022-07-29T00:21:05;3.35;;;2.10;;
51971;SDS011;37991;49.662;10.060;2022-07-29T00:23:30;3.97;;;2.40;;
51971;SDS011;37991;49.662;10.060;2022-07-29T00:25:55;3.10;;;2.38;;
51971;SDS011;37991;49.662;10.060;2022-07-29T00:28:21;4.28;;;2.45;;
51971;SDS011;37991;49.662;10.060;2022-07-29T00:30:46;3.28;;;2.60;;
51971;SDS011;37991;49.662;10.060;2022-07-29T00:33:11;12.77;;;3.63;;
51971;SDS011;37991;49.662;10.060;2022-07-29T00:35:37;4.25;;;2.40;;
51971;SDS011;37991;49.662;10.060;2022-07-29T00:38:08;5.20;;;2.40;;
51971;SDS011;37991;49.662;10.060;2022-07-29T00:40:34;3.15;;;2.65;;
51971;SDS011;37991;49.662;10.060;2022-07-29T00:43:00;4.07;;;2.30;;
51971;SDS011;37991;49.662;10.060;2022-07-29T00:45:26;9.60;;;2.90;;
51971;SDS011;37991;49.662;10.060;2022-07-29T00:47:52;3.65;;;2.25;;
51971;SDS011;37991;49.662;10.060;2022-07-29T00:50:17;7.97;;;2.35;;
51971;SDS011;37991;49.662;10.060;2022-07-29T00:52:43;5.32;;;2.38;;
51971;SDS011;37991;49.662;10.060;2022-07-29T00:55:10;2.58;;;2.33;;
51971;SDS011;37991;49.662;10.060;2022-07-29T00:57:37;3.08;;;2.17;;
51971;SDS011;37991;49.662;10.060;2022-07-29T01:00:04;4.18;;;2.30;;
51971;SDS011;37991;49.662;10.060;2022-07-29T01:02:30;2.55;;;2.20;;
51971;SDS011;37991;49.662;10.060;2022-07-29T01:04:55;3.88;;;2.47;;
51971;SDS011;37991;49.662;10.060;2022-07-29T01:07:22;7.82;;;2.63;;
51971;SDS011;37991;49.662;10.060;2022-07-29T01:09:49;3.92;;;2.35;;
51971;SDS011;37991;49.662;10.060;2022-07-29T01:12:19;3.22;;;2.13;;
51971;SDS011;37991;49.662;10.060;2022-07-29T01:14:47;4.85;;;2.10;;
51971;SDS011;37991;49.662;10.060;2022-07-29T01:17:21;2.72;;;2.17;;
51971;SDS011;37991;49.662;10.060;2022-07-29T01:28:47;2.80;;;2.50;;
51971;SDS011;37991;49.662;10.060;2022-07-29T01:31:42;3.38;;;2.22;;
51971;SDS011;37991;49.662;10.060;2022-07-29T01:34:11;4.15;;;2.30;;
51971;SDS011;37991;49.662;10.060;2022-07-29T01:36:43;3.08;;;2.20;;
51971;SDS011;37991;49.662;10.060;2022-07-29T01:39:18;6.45;;;2.60;;
51971;SDS011;37991;49.662;10.060;2022-07-29T01:44:41;5.10;;;2.38;;
51971;SDS011;37991;49.662;10.060;2022-07-29T01:47:23;2.67;;;2.28;;
51971;SDS011;37991;49.662;10.060;2022-07-29T01:49:56;5.18;;;2.22;;
51971;SDS011;37991;49.662;10.060;2022-07-29T01:52:31;4.30;;;2.40;;
51971;SDS011;37991;49.662;10.060;2022-07-29T01:55:02;4.45;;;2.35;;
51971;SDS011;37991;49.662;10.060;2022-07-29T01:57:32;2.60;;;2.13;;
51971;SDS011;37991;49.662;10.060;2022-07-29T01:59:59;3.22;;;2.55;;
51971;SDS011;37991;49.662;10.060;2022-07-29T02:02:26;3.17;;;2.55;;
51971;SDS011;37991;49.662;10.060;2022-07-29T02:04:53;5.35;;;2.35;;
51971;SDS011;37991;49.662;10.060;2022-07-29T02:07:20;5.53;;;2.92;;
51971;SDS011;37991;49.662;10.060;2022-07-29T02:09:47;5.72;;;2.28;;
51971;SDS011;37991;49.662;10.060;2022-07-29T02:12:16;6.53;;;2.50;;
51971;SDS011;37991;49.662;10.060;2022-07-29T02:14:45;2.83;;;2.20;;
51971;SDS011;37991;49.662;10.060;2022-07-29T02:17:12;4.30;;;2.35;;
51971;SDS011;37991;49.662;10.060;2022-07-29T02:19:42;3.42;;;2.47;;
51971;SDS011;37991;49.662;10.060;2022-07-29T02:22:09;3.50;;;2.35;;
51971;SDS011;37991;49.662;10.060;2022-07-29T02:24:37;3.15;;;2.42;;
51971;SDS011;37991;49.662;10.060;2022-07-29T02:27:05;4.18;;;2.80;;
51971;SDS011;37991;49.662;10.060;2022-07-29T02:29:33;3.00;;;2.50;;
51971;SDS011;37991;49.662;10.060;2022-07-29T02:32:00;4.70;;;2.45;;
51971;SDS011;37991;49.662;10.060;2022-07-29T02:34:29;3.50;;;2.35;;
51971;SDS011;37991;49.662;10.060;2022-07-29T02:36:55;3.10;;;2.30;;
51971;SDS011;37991;49.662;10.060;2022-07-29T02:39:20;3.25;;;2.40;;
51971;SDS011;37991;49.662;10.060;2022-07-29T02:41:49;2.63;;;2.35;;
51971;SDS011;37991;49.662;10.060;2022-07-29T02:44:18;4.75;;;2.60;;
51971;SDS011;37991;49.662;10.060;2022-07-29T02:46:58;2.92;;;2.33;;
51971;SDS011;37991;49.662;10.060;2022-07-29T02:49:35;3.70;;;2.40;;
51971;SDS011;37991;49.662;10.060;2022-07-29T02:52:04;7.45;;;2.67;;
51971;SDS011;37991;49.662;10.060;2022-07-29T02:54:38;3.30;;;2.30;;
51971;SDS011;37991;49.662;10.060;2022-07-29T02:57:17;5.32;;;2.72;;
51971;SDS011;37991;49.662;10.060;2022-07-29T02:59:47;6.28;;;2.42;;
51971;SDS011;37991;49.662;10.060;2022-07-29T03:02:16;5.35;;;2.40;;
51971;SDS011;37991;49.662;10.060;2022-07-29T03:04:43;2.65;;;2.22;;
51971;SDS011;37991;49.662;10.060;2022-07-29T03:07:10;4.43;;;2.50;;
51971;SDS011;37991;49.662;10.060;2022-07-29T03:09:38;4.53;;;2.63;;
51971;SDS011;37991;49.662;10.060;2022-07-29T03:12:05;3.15;;;2.38;;
51971;SDS011;37991;49.662;10.060;2022-07-29T03:14:31;3.03;;;2.42;;
51971;SDS011;37991;49.662;10.060;2022-07-29T03:16:57;6.15;;;2.75;;
51971;SDS011;37991;49.662;10.060;2022-07-29T03:19:23;3.65;;;2.30;;
51971;SDS011;37991;49.662;10.060;2022-07-29T03:21:48;5.25;;;2.70;;
51971;SDS011;37991;49.662;10.060;2022-07-29T03:24:32;3.85;;;2.70;;
51971;SDS011;37991;49.662;10.060;2022-07-29T03:26:59;4.68;;;2.45;;
51971;SDS011;37991;49.662;10.060;2022-07-29T03:29:25;2.67;;;2.45;;
51971;SDS011;37991;49.662;10.060;2022-07-29T03:31:51;4.63;;;2.75;;
51971;SDS011;37991;49.662;10.060;2022-07-29T03:34:17;6.63;;;2.50;;
51971;SDS011;37991;49.662;10.060;2022-07-29T03:36:42;5.63;;;3.05;;
51971;SDS011;37991;49.662;10.060;2022-07-29T03:39:08;3.30;;;2.40;;
51971;SDS011;37991;49.662;10.060;2022-07-29T03:41:35;4.82;;;2.45;;
51971;SDS011;37991;49.662;10.060;2022-07-29T03:44:04;4.40;;;2.58;;
51971;SDS011;37991;49.662;10.060;2022-07-29T03:46:32;5.70;;;2.90;;
51971;SDS011;37991;49.662;10.060;2022-07-29T03:49:00;4.18;;;2.80;;
51971;SDS011;37991;49.662;10.060;2022-07-29T03:51:28;8.18;;;2.88;;
51971;SDS011;37991;49.662;10.060;2022-07-29T03:53:54;7.13;;;2.67;;
51971;SDS011;37991;49.662;10.060;2022-07-29T03:56:20;4.70;;;2.70;;
51971;SDS011;37991;49.662;10.060;2022-07-29T03:58:47;3.50;;;2.53;;
51971;SDS011;37991;49.662;10.060;2022-07-29T04:01:16;6.18;;;2.72;;
51971;SDS011;37991;49.662;10.060;2022-07-29T04:03:43;4.40;;;2.90;;
51971;SDS011;37991;49.662;10.060;2022-07-29T04:06:12;5.10;;;3.08;;
51971;SDS011;37991;49.662;10.060;2022-07-29T04:08:38;6.78;;;2.67;;
51971;SDS011;37991;49.662;10.060;2022-07-29T04:11:03;4.68;;;2.70;;
51971;SDS011;37991;49.662;10.060;2022-07-29T04:13:30;8.23;;;3.35;;
51971;SDS011;37991;49.662;10.060;2022-07-29T04:15:56;4.80;;;2.58;;
51971;SDS011;37991;49.662;10.060;2022-07-29T04:18:21;4.05;;;2.90;;
51971;SDS011;37991;49.662;10.060;2022-07-29T04:20:46;6.53;;;2.90;;
51971;SDS011;37991;49.662;10.060;2022-07-29T04:23:12;6.28;;;2.60;;
51971;SDS011;37991;49.662;10.060;2022-07-29T04:25:38;5.90;;;3.10;;
51971;SDS011;37991;49.662;10.060;2022-07-29T04:28:04;5.20;;;2.65;;
51971;SDS011;37991;49.662;10.060;2022-07-29T04:30:31;4.20;;;2.72;;
51971;SDS011;37991;49.662;10.060;2022-07-29T04:32:58;5.80;;;2.90;;
51971;SDS011;37991;49.662;10.060;2022-07-29T04:35:25;8.32;;;2.75;;
51971;SDS011;37991;49.662;10.060;2022-07-29T04:37:51;4.43;;;2.70;;
51971;SDS011;37991;49.662;10.060;2022-07-29T04:40:17;5.32;;;2.80;;
51971;SDS011;37991;49.662;10.060;2022-07-29T04:42:42;6.00;;;3.00;;
51971;SDS011;37991;49.662;10.060;2022-07-29T04:45:07;4.28;;;2.80;;
51971;SDS011;37991;49.662;10.060;2022-07-29T04:47:34;4.18;;;2.67;;
51971;SDS011;37991;49.662;10.060;2022-07-29T04:50:00;6.18;;;2.92;;
51971;SDS011;37991;49.662;10.060;2022-07-29T04:52:25;6.85;;;2.90;;
51971;SDS011;37991;49.662;10.060;2022-07-29T04:54:51;6.07;;;2.70;;
51971;SDS011;37991;49.662;10.060;2022-07-29T04:57:16;4.68;;;2.78;;
51971;SDS011;37991;49.662;10.060;2022-07-29T04:59:42;6.47;;;2.97;;
51971;SDS011;37991;49.662;10.060;2022-07-29T05:02:07;4.15;;;2.53;;
51971;SDS011;37991;49.662;10.060;2022-07-29T05:04:32;4.75;;;2.72;;
51971;SDS011;37991;49.662;10.060;2022-07-29T05:06:58;6.30;;;3.35;;
51971;SDS011;37991;49.662;10.060;2022-07-29T05:09:23;7.78;;;3.10;;
51971;SDS011;37991;49.662;10.060;2022-07-29T05:11:48;5.10;;;2.95;;
51971;SDS011;37991;49.662;10.060;2022-07-29T05:14:14;8.60;;;2.70;;
51971;SDS011;37991;49.662;10.060;2022-07-29T05:16:40;4.30;;;2.70;;
51971;SDS011;37991;49.662;10.060;2022-07-29T05:19:05;5.57;;;2.72;;
51971;SDS011;37991;49.662;10.060;2022-07-29T05:21:31;5.15;;;2.90;;
51971;SDS011;37991;49.662;10.060;2022-07-29T05:23:57;6.22;;;2.75;;
51971;SDS011;37991;49.662;10.060;2022-07-29T05:26:22;5.15;;;3.05;;
51971;SDS011;37991;49.662;10.060;2022-07-29T05:28:47;7.00;;;3.00;;
51971;SDS011;37991;49.662;10.060;2022-07-29T05:31:13;8.75;;;3.17;;
51971;SDS011;37991;49.662;10.060;2022-07-29T05:33:39;5.22;;;2.92;;
51971;SDS011;37991;49.662;10.060;2022-07-29T05:36:06;8.02;;;2.70;;
51971;SDS011;37991;49.662;10.060;2022-07-29T05:38:32;6.35;;;3.47;;
51971;SDS011;37991;49.662;10.060;2022-07-29T05:40:58;7.25;;;3.10;;
51971;SDS011;37991;49.662;10.060;2022-07-29T05:43:25;11.10;;;3.22;;
51971;SDS011;37991;49.662;10.060;2022-07-29T05:45:51;5.63;;;2.83;;
51971;SDS011;37991;49.662;10.060;2022-07-29T05:48:16;6.50;;;3.13;;
51971;SDS011;37991;49.662;10.060;2022-07-29T05:50:42;7.22;;;3.00;;
51971;SDS011;37991;49.662;10.060;2022-07-29T05:53:13;3.83;;;2.60;;
51971;SDS011;37991;49.662;10.060;2022-07-29T05:55:38;8.15;;;2.90;;
51971;SDS011;37991;49.662;10.060;2022-07-29T05:58:03;10.65;;;3.00;;
51971;SDS011;37991;49.662;10.060;2022-07-29T06:00:29;12.52;;;3.58;;
51971;SDS011;37991;49.662;10.060;2022-07-29T06:02:55;6.75;;;2.90;;
51971;SDS011;37991;49.662;10.060;2022-07-29T06:05:20;5.97;;;3.00;;
51971;SDS011;37991;49.662;10.060;2022-07-29T06:07:45;6.80;;;2.85;;
51971;SDS011;37991;49.662;10.060;2022-07-29T06:10:11;9.88;;;2.97;;
51971;SDS011;37991;49.662;10.060;2022-07-29T06:12:36;7.55;;;2.90;;
51971;SDS011;37991;49.662;10.060;2022-07-29T06:15:02;8.85;;;3.40;;
51971;SDS011;37991;49.662;10.060;2022-07-29T06:17:27;6.88;;;2.95;;
51971;SDS011;37991;49.662;10.060;2022-07-29T06:19:53;11.60;;;3.13;;
51971;SDS011;37991;49.662;10.060;2022-07-29T06:22:18;11.80;;;2.80;;
51971;SDS011;37991;49.662;10.060;2022-07-29T06:24:43;11.02;;;3.50;;
51971;SDS011;37991;49.662;10.060;2022-07-29T06:27:10;14.88;;;3.83;;
51971;SDS011;37991;49.662;10.060;2022-07-29T06:29:36;8.98;;;3.22;;
51971;SDS011;37991;49.662;10.060;2022-07-29T06:32:01;13.57;;;3.67;;
51971;SDS011;37991;49.662;10.060;2022-07-29T06:34:27;15.70;;;3.78;;
51971;SDS011;37991;49.662;10.060;2022-07-29T06:36:52;26.67;;;3.65;;
51971;SDS011;37991;49.662;10.060;2022-07-29T06:39:18;14.88;;;3.00;;
51971;SDS011;37991;49.662;10.060;2022-07-29T06:41:46;20.42;;;3.63;;
51971;SDS011;37991;49.662;10.060;2022-07-29T06:44:15;17.02;;;3.42;;
51971;SDS011;37991;49.662;10.060;2022-07-29T06:46:41;15.88;;;3.72;;
51971;SDS011;37991;49.662;10.060;2022-07-29T06:49:07;16.60;;;4.00;;
51971;SDS011;37991;49.662;10.060;2022-07-29T06:51:32;10.77;;;3.30;;
51971;SDS011;37991;49.662;10.060;2022-07-29T06:53:58;8.30;;;3.10;;
51971;SDS011;37991;49.662;10.060;2022-07-29T06:56:24;9.80;;;3.00;;
51971;SDS011;37991;49.662;10.060;2022-07-29T06:58:50;10.90;;;3.03;;
51971;SDS011;37991;49.662;10.060;2022-07-29T07:01:15;7.63;;;3.30;;
51971;SDS011;37991;49.662;10.060;2022-07-29T07:03:41;9.68;;;2.70;;
51971;SDS011;37991;49.662;10.060;2022-07-29T07:06:06;7.65;;;2.67;;
51971;SDS011;37991;49.662;10.060;2022-07-29T07:08:32;7.40;;;3.08;;
51971;SDS011;37991;49.662;10.060;2022-07-29T07:10:57;6.35;;;3.05;;
51971;SDS011;37991;49.662;10.060;2022-07-29T07:13:23;5.93;;;2.80;;
51971;SDS011;37991;49.662;10.060;2022-07-29T07:15:48;8.48;;;3.42;;
51971;SDS011;37991;49.662;10.060;2022-07-29T07:18:15;11.80;;;2.90;;
51971;SDS011;37991;49.662;10.060;2022-07-29T07:20:41;5.95;;;2.78;;
51971;SDS011;37991;49.662;10.060;2022-07-29T07:23:06;4.47;;;2.70;;
51971;SDS011;37991;49.662;10.060;2022-07-29T07:25:32;4.60;;;2.58;;
51971;SDS011;37991;49.662;10.060;2022-07-29T07:27:58;6.75;;;2.60;;
51971;SDS011;37991;49.662;10.060;2022-07-29T07:30:23;4.50;;;2.50;;
51971;SDS011;37991;49.662;10.060;2022-07-29T07:32:49;4.30;;;2.50;;
51971;SDS011;37991;49.662;10.060;2022-07-29T07:35:14;7.97;;;2.58;;
51971;SDS011;37991;49.662;10.060;2022-07-29T07:37:39;3.30;;;2.47;;
51971;SDS011;37991;49.662;10.060;2022-07-29T07:40:08;3.88;;;2.20;;
51971;SDS011;37991;49.662;10.060;2022-07-29T07:42:34;6.10;;;2.28;;
51971;SDS011;37991;49.662;10.060;2022-07-29T07:45:00;3.40;;;2.28;;
51971;SDS011;37991;49.662;10.060;2022-07-29T07:47:25;3.40;;;2.40;;
51971;SDS011;37991;49.662;10.060;2022-07-29T07:49:51;5.00;;;2.20;;
51971;SDS011;37991;49.662;10.060;2022-07-29T07:52:18;4.90;;;2.22;;
51971;SDS011;37991;49.662;10.060;2022-07-29T07:54:44;4.25;;;2.30;;
51971;SDS011;37991;49.662;10.060;2022-07-29T07:57:13;3.67;;;2.30;;
51971;SDS011;37991;49.662;10.060;2022-07-29T07:59:39;2.25;;;2.00;;
51971;SDS011;37991;49.662;10.060;2022-07-29T08:02:04;3.65;;;2.28;;
51971;SDS011;37991;49.662;10.060;2022-07-29T08:04:30;4.20;;;2.30;;
51971;SDS011;37991;49.662;10.060;2022-07-29T08:06:56;4.07;;;2.42;;
51971;SDS011;37991;49.662;10.060;2022-07-29T08:09:22;6.78;;;2.30;;
51971;SDS011;37991;49.662;10.060;2022-07-29T08:11:48;4.47;;;2.50;;
51971;SDS011;37991;49.662;10.060;2022-07-29T08:14:14;5.38;;;2.33;;
51971;SDS011;37991;49.662;10.060;2022-07-29T08:16:40;3.72;;;2.17;;
51971;SDS011;37991;49.662;10.060;2022-07-29T08:19:06;4.70;;;2.50;;
51971;SDS011;37991;49.662;10.060;2022-07-29T08:21:32;4.90;;;2.53;;
51971;SDS011;37991;49.662;10.060;2022-07-29T08:23:57;3.08;;;2.17;;
51971;SDS011;37991;49.662;10.060;2022-07-29T08:26:41;5.18;;;2.60;;
51971;SDS011;37991;49.662;10.060;2022-07-29T08:29:08;4.95;;;2.33;;
51971;SDS011;37991;49.662;10.060;2022-07-29T08:31:34;6.47;;;2.90;;
51971;SDS011;37991;49.662;10.060;2022-07-29T08:34:00;6.05;;;2.20;;
51971;SDS011;37991;49.662;10.060;2022-07-29T08:36:26;3.03;;;2.38;;
51971;SDS011;37991;49.662;10.060;2022-07-29T08:38:51;4.03;;;2.30;;
51971;SDS011;37991;49.662;10.060;2022-07-29T08:41:20;8.20;;;2.53;;
51971;SDS011;37991;49.662;10.060;2022-07-29T08:43:46;5.65;;;2.40;;
51971;SDS011;37991;49.662;10.060;2022-07-29T08:46:12;2.80;;;2.30;;
51971;SDS011;37991;49.662;10.060;2022-07-29T08:48:38;3.67;;;2.25;;
51971;SDS011;37991;49.662;10.060;2022-07-29T08:51:05;3.10;;;2.20;;
51971;SDS011;37991;49.662;10.060;2022-07-29T08:53:32;3.33;;;2.70;;
51971;SDS011;37991;49.662;10.060;2022-07-29T08:55:58;3.65;;;2.40;;
51971;SDS011;37991;49.662;10.060;2022-07-29T08:58:25;4.13;;;2.42;;
51971;SDS011;37991;49.662;10.060;2022-07-29T09:00:52;2.45;;;2.20;;
51971;SDS011;37991;49.662;10.060;2022-07-29T09:03:20;3.40;;;2.22;;
51971;SDS011;37991;49.662;10.060;2022-07-29T09:05:48;4.60;;;2.22;;
51971;SDS011;37991;49.662;10.060;2022-07-29T09:08:15;4.40;;;2.70;;
51971;SDS011;37991;49.662;10.060;2022-07-29T09:10:42;3.90;;;2.60;;
51971;SDS011;37991;49.662;10.060;2022-07-29T09:13:07;5.03;;;2.22;;
51971;SDS011;37991;49.662;10.060;2022-07-29T09:15:33;3.92;;;2.70;;
51971;SDS011;37991;49.662;10.060;2022-07-29T09:17:58;2.95;;;2.67;;
51971;SDS011;37991;49.662;10.060;2022-07-29T09:20:25;3.45;;;2.67;;
51971;SDS011;37991;49.662;10.060;2022-07-29T09:23:11;3.92;;;2.40;;
51971;SDS011;37991;49.662;10.060;2022-07-29T09:25:38;3.47;;;2.45;;
51971;SDS011;37991;49.662;10.060;2022-07-29T09:28:09;3.35;;;2.50;;
51971;SDS011;37991;49.662;10.060;2022-07-29T09:30:39;2.50;;;2.30;;
51971;SDS011;37991;49.662;10.060;2022-07-29T09:33:16;5.43;;;2.65;;
51971;SDS011;37991;49.662;10.060;2022-07-29T09:35:41;5.97;;;2.60;;
51971;SDS011;37991;49.662;10.060;2022-07-29T09:38:10;4.77;;;2.50;;
51971;SDS011;37991;49.662;10.060;2022-07-29T09:40:36;3.58;;;2.40;;
51971;SDS011;37991;49.662;10.060;2022-07-29T09:43:09;3.67;;;2.00;;
51971;SDS011;37991;49.662;10.060;2022-07-29T09:45:36;2.78;;;2.30;;
51971;SDS011;37991;49.662;10.060;2022-07-29T09:48:16;3.22;;;2.50;;
51971;SDS011;37991;49.662;10.060;2022-07-29T09:50:43;3.33;;;2.42;;
51971;SDS011;37991;49.662;10.060;2022-07-29T09:53:10;2.65;;;2.30;;
51971;SDS011;37991;49.662;10.060;2022-07-29T09:55:49;3.85;;;2.30;;
51971;SDS011;37991;49.662;10.060;2022-07-29T09:58:19;5.13;;;2.33;;
51971;SDS011;37991;49.662;10.060;2022-07-29T10:00:46;2.45;;;2.22;;
51971;SDS011;37991;49.662;10.060;2022-07-29T10:03:13;3.47;;;2.33;;
51971;SDS011;37991;49.662;10.060;2022-07-29T10:05:39;3.42;;;2.40;;
51971;SDS011;37991;49.662;10.060;2022-07-29T10:08:05;4.70;;;2.20;;
51971;SDS011;37991;49.662;10.060;2022-07-29T10:10:32;3.33;;;2.17;;
51971;SDS011;37991;49.662;10.060;2022-07-29T10:13:10;3.53;;;2.25;;
51971;SDS011;37991;49.662;10.060;2022-07-29T10:15:39;3.35;;;1.98;;
51971;SDS011;37991;49.662;10.060;2022-07-29T10:18:08;3.67;;;2.15;;
51971;SDS011;37991;49.662;10.060;2022-07-29T10:20:35;2.33;;;2.10;;
51971;SDS011;37991;49.662;10.060;2022-07-29T10:23:02;4.40;;;2.28;;
51971;SDS011;37991;49.662;10.060;2022-07-29T10:25:27;3.92;;;2.33;;
51971;SDS011;37991;49.662;10.060;2022-07-29T10:27:53;3.67;;;2.40;;
51971;SDS011;37991;49.662;10.060;2022-07-29T10:30:20;5.50;;;1.80;;
51971;SDS011;37991;49.662;10.060;2022-07-29T10:32:58;6.85;;;1.80;;
51971;SDS011;37991;49.662;10.060;2022-07-29T10:35:46;3.10;;;2.05;;
51971;SDS011;37991;49.662;10.060;2022-07-29T10:38:25;3.80;;;2.08;;
51971;SDS011;37991;49.662;10.060;2022-07-29T10:43:53;2.63;;;2.13;;
51971;SDS011;37991;49.662;10.060;2022-07-29T10:46:22;3.22;;;2.38;;
51971;SDS011;37991;49.662;10.060;2022-07-29T10:51:52;5.95;;;2.10;;
51971;SDS011;37991;49.662;10.060;2022-07-29T10:54:36;3.67;;;1.98;;
51971;SDS011;37991;49.662;10.060;2022-07-29T10:57:21;4.20;;;2.10;;
51971;SDS011;37991;49.662;10.060;2022-07-29T11:05:11;3.67;;;1.98;;
51971;SDS011;37991;49.662;10.060;2022-07-29T11:07:39;6.30;;;1.90;;
51971;SDS011;37991;49.662;10.060;2022-07-29T11:10:24;2.58;;;2.08;;
51971;SDS011;37991;49.662;10.060;2022-07-29T11:12:49;3.03;;;1.90;;
51971;SDS011;37991;49.662;10.060;2022-07-29T11:15:17;3.33;;;2.20;;
51971;SDS011;37991;49.662;10.060;2022-07-29T11:23:17;3.53;;;2.13;;
51971;SDS011;37991;49.662;10.060;2022-07-29T11:34:16;6.07;;;2.55;;
51971;SDS011;37991;49.662;10.060;2022-07-29T11:47:41;4.63;;;2.17;;
51971;SDS011;37991;49.662;10.060;2022-07-29T11:50:28;6.45;;;2.50;;
51971;SDS011;37991;49.662;10.060;2022-07-29T11:52:55;7.13;;;2.65;;
51971;SDS011;37991;49.662;10.060;2022-07-29T11:55:22;7.07;;;2.40;;
51971;SDS011;37991;49.662;10.060;2022-07-29T11:58:07;4.13;;;2.40;;
51971;SDS011;37991;49.662;10.060;2022-07-29T12:00:40;8.20;;;2.83;;
51971;SDS011;37991;49.662;10.060;2022-07-29T12:03:10;7.45;;;2.60;;
51971;SDS011;37991;49.662;10.060;2022-07-29T12:05:37;3.97;;;2.50;;
51971;SDS011;37991;49.662;10.060;2022-07-29T12:08:05;3.85;;;2.47;;
51971;SDS011;37991;49.662;10.060;2022-07-29T12:10:31;8.32;;;2.53;;
51971;SDS011;37991;49.662;10.060;2022-07-29T12:12:57;4.95;;;2.45;;
51971;SDS011;37991;49.662;10.060;2022-07-29T12:15:22;6.88;;;2.55;;
51971;SDS011;37991;49.662;10.060;2022-07-29T12:17:49;8.80;;;3.00;;
51971;SDS011;37991;49.662;10.060;2022-07-29T12:20:21;5.07;;;2.30;;
51971;SDS011;37991;49.662;10.060;2022-07-29T12:22:48;2.97;;;2.33;;
51971;SDS011;37991;49.662;10.060;2022-07-29T12:25:14;3.55;;;2.13;;
51971;SDS011;37991;49.662;10.060;2022-07-29T12:27:41;3.90;;;2.50;;
51971;SDS011;37991;49.662;10.060;2022-07-29T12:30:10;3.15;;;2.50;;
51971;SDS011;37991;49.662;10.060;2022-07-29T12:32:47;5.20;;;2.40;;
51971;SDS011;37991;49.662;10.060;2022-07-29T12:35:19;4.25;;;2.50;;
51971;SDS011;37991;49.662;10.060;2022-07-29T12:37:46;3.08;;;2.40;;
51971;SDS011;37991;49.662;10.060;2022-07-29T12:40:13;4.95;;;2.45;;
51971;SDS011;37991;49.662;10.060;2022-07-29T12:42:41;2.97;;;2.42;;
51971;SDS011;37991;49.662;10.060;2022-07-29T12:45:28;5.63;;;2.40;;
51971;SDS011;37991;49.662;10.060;2022-07-29T12:47:54;9.52;;;2.63;;
51971;SDS011;37991;49.662;10.060;2022-07-29T12:50:19;7.78;;;2.40;;
51971;SDS011;37991;49.662;10.060;2022-07-29T12:52:45;4.28;;;2.40;;
51971;SDS011;37991;49.662;10.060;2022-07-29T12:55:11;4.80;;;2.30;;
51971;SDS011;37991;49.662;10.060;2022-07-29T12:57:46;8.38;;;2.63;;
51971;SDS011;37991;49.662;10.060;2022-07-29T13:00:21;5.50;;;2.50;;
51971;SDS011;37991;49.662;10.060;2022-07-29T13:02:54;6.82;;;2.40;;
51971;SDS011;37991;49.662;10.060;2022-07-29T13:05:20;4.32;;;2.35;;
51971;SDS011;37991;49.662;10.060;2022-07-29T13:07:46;3.10;;;2.40;;
51971;SDS011;37991;49.662;10.060;2022-07-29T13:13:23;6.38;;;2.35;;
51971;SDS011;37991;49.662;10.060;2022-07-29T13:15:30;3.25;;;2.25;;
51971;SDS011;37991;49.662;10.060;2022-07-29T13:17:57;2.85;;;2.15;;
51971;SDS011;37991;49.662;10.060;2022-07-29T13:20:26;6.03;;;2.95;;
51971;SDS011;37991;49.662;10.060;2022-07-29T13:22:55;4.10;;;2.10;;
51971;SDS011;37991;49.662;10.060;2022-07-29T13:25:31;4.47;;;2.58;;
51971;SDS011;37991;49.662;10.060;2022-07-29T13:27:57;4.95;;;2.60;;
51971;SDS011;37991;49.662;10.060;2022-07-29T13:30:24;5.22;;;2.40;;
51971;SDS011;37991;49.662;10.060;2022-07-29T13:32:50;6.40;;;2.67;;
51971;SDS011;37991;49.662;10.060;2022-07-29T13:35:17;4.22;;;2.25;;
51971;SDS011;37991;49.662;10.060;2022-07-29T13:37:43;2.80;;;2.30;;
51971;SDS011;37991;49.662;10.060;2022-07-29T13:40:08;4.70;;;2.47;;
51971;SDS011;37991;49.662;10.060;2022-07-29T13:42:35;4.93;;;2.53;;
51971;SDS011;37991;49.662;10.060;2022-07-29T13:45:01;4.32;;;2.33;;
51971;SDS011;37991;49.662;10.060;2022-07-29T13:47:26;4.78;;;2.42;;
51971;SDS011;37991;49.662;10.060;2022-07-29T13:49:52;3.72;;;2.60;;
51971;SDS011;37991;49.662;10.060;2022-07-29T13:52:18;6.00;;;2.58;;
51971;SDS011;37991;49.662;10.060;2022-07-29T13:54:44;9.75;;;2.50;;
51971;SDS011;37991;49.662;10.060;2022-07-29T13:57:10;3.00;;;2.47;;
51971;SDS011;37991;49.662;10.060;2022-07-29T13:59:36;8.25;;;2.58;;
51971;SDS011;37991;49.662;10.060;2022-07-29T14:02:02;5.18;;;3.15;;
51971;SDS011;37991;49.662;10.060;2022-07-29T14:04:28;8.93;;;3.08;;
51971;SDS011;37991;49.662;10.060;2022-07-29T14:06:53;6.22;;;2.95;;
51971;SDS011;37991;49.662;10.060;2022-07-29T14:09:18;9.07;;;2.95;;
51971;SDS011;37991;49.662;10.060;2022-07-29T14:11:44;8.38;;;2.80;;
51971;SDS011;37991;49.662;10.060;2022-07-29T14:14:10;3.85;;;2.60;;
51971;SDS011;37991;49.662;10.060;2022-07-29T14:16:36;5.15;;;2.70;;
51971;SDS011;37991;49.662;10.060;2022-07-29T14:19:01;5.28;;;2.95;;
51971;SDS011;37991;49.662;10.060;2022-07-29T14:21:27;7.68;;;3.00;;
51971;SDS011;37991;49.662;10.060;2022-07-29T14:23:52;10.10;;;3.40;;
51971;SDS011;37991;49.662;10.060;2022-07-29T14:26:19;15.32;;;3.10;;
51971;SDS011;37991;49.662;10.060;2022-07-29T14:28:45;7.63;;;2.95;;
51971;SDS011;37991;49.662;10.060;2022-07-29T14:31:10;5.75;;;2.70;;
51971;SDS011;37991;49.662;10.060;2022-07-29T14:33:35;3.90;;;2.97;;
51971;SDS011;37991;49.662;10.060;2022-07-29T14:36:01;8.95;;;3.15;;
51971;SDS011;37991;49.662;10.060;2022-07-29T14:38:26;3.72;;;3.00;;
51971;SDS011;37991;49.662;10.060;2022-07-29T14:40:52;5.20;;;3.22;;
51971;SDS011;37991;49.662;10.060;2022-07-29T14:43:17;6.00;;;2.90;;
51971;SDS011;37991;49.662;10.060;2022-07-29T14:45:42;7.85;;;2.95;;
51971;SDS011;37991;49.662;10.060;2022-07-29T14:48:08;4.15;;;2.70;;
51971;SDS011;37991;49.662;10.060;2022-07-29T14:50:33;4.38;;;2.70;;
51971;SDS011;37991;49.662;10.060;2022-07-29T14:52:59;4.10;;;2.70;;
51971;SDS011;37991;49.662;10.060;2022-07-29T14:55:25;8.02;;;2.85;;
51971;SDS011;37991;49.662;10.060;2022-07-29T14:57:51;9.23;;;3.10;;
51971;SDS011;37991;49.662;10.060;2022-07-29T15:00:16;5.43;;;2.67;;
51971;SDS011;37991;49.662;10.060;2022-07-29T15:02:42;7.97;;;2.90;;
51971;SDS011;37991;49.662;10.060;2022-07-29T15:05:07;4.57;;;2.90;;
51971;SDS011;37991;49.662;10.060;2022-07-29T15:07:33;6.30;;;2.55;;
51971;SDS011;37991;49.662;10.060;2022-07-29T15:09:58;4.38;;;3.00;;
51971;SDS011;37991;49.662;10.060;2022-07-29T15:12:24;8.55;;;3.30;;
51971;SDS011;37991;49.662;10.060;2022-07-29T15:14:49;5.43;;;3.30;;
51971;SDS011;37991;49.662;10.060;2022-07-29T15:17:14;7.00;;;3.50;;
51971;SDS011;37991;49.662;10.060;2022-07-29T15:19:40;4.45;;;3.42;;
51971;SDS011;37991;49.662;10.060;2022-07-29T15:22:05;5.97;;;3.08;;
51971;SDS011;37991;49.662;10.060;2022-07-29T15:24:30;4.38;;;3.00;;
51971;SDS011;37991;49.662;10.060;2022-07-29T15:26:56;5.10;;;3.45;;